NFC3PC GOBD-EDDP
Flight info
| Callsign | NFC3PC |
|---|---|
| Flight time | N/A |
| Altitude | 31000 |
| Route | SAKLI1B SAKLI DCT ARDAR/N0475F300 DCT ESS/N0464F320 DCT MAR DCT TOPTU DCT LTP/N0457F330 DCT LOKTA DCT LOHRE DCT GOXLI GOXLI1R |
| Aircraft | A306/H-SDE3FGHIRWY/LB1 |
Departure
| Time | N/A |
|---|---|
| Airport | Blaise Diagne International Airport (GOBD) |
Arrival
| Time | 2026-05-08 07:19 |
|---|---|
| Airport | Leipzig/Halle Airport (EDDP) |
| Time | Latitude | Longitude | Altitude | Speed | Heading |
|---|---|---|---|---|---|
| 2026-05-08 06:17 | 47.53906 | 8.25503 | 31068 ft | 471 kts | 44° |
| 2026-05-08 06:17 | 47.58585 | 8.32304 | 31064 ft | 470 kts | 44° |
| 2026-05-08 06:18 | 47.63252 | 8.39107 | 31067 ft | 470 kts | 44° |
| 2026-05-08 06:18 | 47.67915 | 8.45918 | 31067 ft | 470 kts | 44° |
| 2026-05-08 06:19 | 47.72563 | 8.52729 | 31065 ft | 469 kts | 44° |
| 2026-05-08 06:19 | 47.77176 | 8.59505 | 31062 ft | 469 kts | 44° |
| 2026-05-08 06:20 | 47.81814 | 8.66337 | 31060 ft | 468 kts | 44° |
| 2026-05-08 06:20 | 47.86446 | 8.73176 | 31057 ft | 468 kts | 44° |
| 2026-05-08 06:21 | 47.91072 | 8.80025 | 31058 ft | 468 kts | 44° |
| 2026-05-08 06:21 | 47.95661 | 8.86840 | 31059 ft | 468 kts | 44° |
| 2026-05-08 06:22 | 48.00304 | 8.93751 | 31058 ft | 468 kts | 44° |
| 2026-05-08 06:22 | 48.04915 | 9.00633 | 31058 ft | 469 kts | 44° |
| 2026-05-08 06:23 | 48.09527 | 9.07536 | 31058 ft | 469 kts | 44° |
| 2026-05-08 06:23 | 48.14272 | 9.14086 | 31062 ft | 467 kts | 34° |
| 2026-05-08 06:24 | 48.20039 | 9.18340 | 31063 ft | 461 kts | 13° |
| 2026-05-08 06:24 | 48.26343 | 9.19912 | 31067 ft | 458 kts | 4° |
| 2026-05-08 06:25 | 48.32679 | 9.20875 | 31065 ft | 457 kts | 2° |
| 2026-05-08 06:25 | 48.39020 | 9.21772 | 31069 ft | 457 kts | 2° |
| 2026-05-08 06:26 | 48.45353 | 9.22717 | 31071 ft | 457 kts | 3° |
| 2026-05-08 06:26 | 48.51638 | 9.23694 | 31076 ft | 457 kts | 3° |
| 2026-05-08 06:27 | 48.57972 | 9.24681 | 31075 ft | 456 kts | 3° |
| 2026-05-08 06:27 | 48.63224 | 9.25500 | 31078 ft | 456 kts | 3° |
| 2026-05-08 06:28 | 48.69533 | 9.26489 | 31077 ft | 456 kts | 3° |
| 2026-05-08 06:28 | 48.75844 | 9.27482 | 31079 ft | 455 kts | 3° |
| 2026-05-08 06:29 | 48.82143 | 9.28472 | 31075 ft | 455 kts | 3° |
| 2026-05-08 06:29 | 48.88437 | 9.29469 | 31079 ft | 454 kts | 3° |
| 2026-05-08 06:30 | 48.94680 | 9.30460 | 31081 ft | 454 kts | 3° |
| 2026-05-08 06:30 | 49.00957 | 9.31457 | 31084 ft | 453 kts | 3° |
| 2026-05-08 06:31 | 49.07232 | 9.32455 | 31085 ft | 453 kts | 3° |
| 2026-05-08 06:31 | 49.13505 | 9.33455 | 31092 ft | 452 kts | 3° |
| 2026-05-08 06:32 | 49.19736 | 9.34452 | 31088 ft | 452 kts | 3° |
| 2026-05-08 06:32 | 49.25994 | 9.35457 | 31086 ft | 452 kts | 3° |
| 2026-05-08 06:33 | 49.32251 | 9.36464 | 31086 ft | 451 kts | 3° |
| 2026-05-08 06:33 | 49.38490 | 9.37469 | 31097 ft | 450 kts | 3° |
| 2026-05-08 06:34 | 49.44724 | 9.38474 | 31090 ft | 450 kts | 3° |
| 2026-05-08 06:34 | 49.50926 | 9.39480 | 31110 ft | 450 kts | 3° |
| 2026-05-08 06:35 | 49.57167 | 9.40498 | 31098 ft | 450 kts | 3° |
| 2026-05-08 06:35 | 49.63392 | 9.41511 | 31099 ft | 449 kts | 3° |
| 2026-05-08 06:36 | 49.69587 | 9.42521 | 31104 ft | 450 kts | 3° |
| 2026-05-08 06:36 | 49.75809 | 9.43539 | 31102 ft | 449 kts | 3° |
| 2026-05-08 06:37 | 49.82024 | 9.44560 | 31103 ft | 449 kts | 3° |
| 2026-05-08 06:37 | 49.88236 | 9.45585 | 31103 ft | 449 kts | 3° |
| 2026-05-08 06:38 | 49.94447 | 9.46608 | 31106 ft | 448 kts | 3° |
| 2026-05-08 06:38 | 50.00650 | 9.47782 | 31102 ft | 450 kts | 9° |
| 2026-05-08 06:39 | 50.06534 | 9.51160 | 31102 ft | 456 kts | 28° |
| 2026-05-08 06:39 | 50.09108 | 9.53975 | 31103 ft | 458 kts | 39° |
| 2026-05-08 06:39 | 50.11361 | 9.57503 | 30971 ft | 461 kts | 47° |
| 2026-05-08 06:40 | 50.13412 | 9.61337 | 30647 ft | 460 kts | 49° |
| 2026-05-08 06:40 | 50.15418 | 9.65214 | 30330 ft | 458 kts | 50° |
| 2026-05-08 06:40 | 50.17413 | 9.69079 | 29990 ft | 455 kts | 50° |
| 2026-05-08 06:40 | 50.19396 | 9.72911 | 29618 ft | 453 kts | 50° |
| 2026-05-08 06:41 | 50.21375 | 9.76735 | 29228 ft | 450 kts | 50° |
| 2026-05-08 06:41 | 50.23336 | 9.80524 | 28846 ft | 446 kts | 50° |
| 2026-05-08 06:41 | 50.25276 | 9.84274 | 28452 ft | 442 kts | 50° |
| 2026-05-08 06:41 | 50.27200 | 9.87996 | 28071 ft | 439 kts | 50° |
| 2026-05-08 06:42 | 50.29110 | 9.91696 | 27698 ft | 436 kts | 50° |
| 2026-05-08 06:42 | 50.31008 | 9.95375 | 27324 ft | 433 kts | 50° |
| 2026-05-08 06:42 | 50.32880 | 9.99012 | 26962 ft | 431 kts | 50° |
| 2026-05-08 06:42 | 50.34753 | 10.02655 | 26604 ft | 428 kts | 50° |
| 2026-05-08 06:43 | 50.36614 | 10.06277 | 26246 ft | 426 kts | 50° |
| 2026-05-08 06:43 | 50.38465 | 10.09887 | 25894 ft | 424 kts | 50° |
| 2026-05-08 06:43 | 50.40304 | 10.13478 | 25546 ft | 421 kts | 50° |
| 2026-05-08 06:43 | 50.42134 | 10.17056 | 25203 ft | 420 kts | 50° |
| 2026-05-08 06:44 | 50.43963 | 10.20637 | 24865 ft | 419 kts | 50° |
| 2026-05-08 06:44 | 50.45758 | 10.24156 | 24533 ft | 417 kts | 50° |
| 2026-05-08 06:44 | 50.47569 | 10.27710 | 24197 ft | 415 kts | 50° |
| 2026-05-08 06:44 | 50.49369 | 10.31250 | 23869 ft | 413 kts | 50° |
| 2026-05-08 06:45 | 50.51159 | 10.34775 | 23517 ft | 411 kts | 50° |
| 2026-05-08 06:45 | 50.52942 | 10.38290 | 23129 ft | 409 kts | 50° |
| 2026-05-08 06:45 | 50.54715 | 10.41791 | 22744 ft | 407 kts | 50° |
| 2026-05-08 06:45 | 50.56473 | 10.45265 | 22368 ft | 404 kts | 50° |
| 2026-05-08 06:46 | 50.58218 | 10.48719 | 21967 ft | 402 kts | 50° |
| 2026-05-08 06:46 | 50.59923 | 10.52100 | 21549 ft | 398 kts | 50° |
| 2026-05-08 06:46 | 50.61643 | 10.55512 | 21135 ft | 395 kts | 50° |
| 2026-05-08 06:46 | 50.63345 | 10.58893 | 20725 ft | 392 kts | 50° |
| 2026-05-08 06:47 | 50.65034 | 10.62254 | 20323 ft | 389 kts | 50° |
| 2026-05-08 06:47 | 50.66706 | 10.65585 | 19921 ft | 386 kts | 50° |
| 2026-05-08 06:47 | 50.68363 | 10.68889 | 19528 ft | 383 kts | 51° |
| 2026-05-08 06:47 | 50.70012 | 10.72183 | 19140 ft | 380 kts | 51° |
| 2026-05-08 06:48 | 50.71644 | 10.75447 | 18755 ft | 377 kts | 51° |
| 2026-05-08 06:48 | 50.73261 | 10.78687 | 18372 ft | 374 kts | 51° |
| 2026-05-08 06:48 | 50.74846 | 10.81863 | 17928 ft | 372 kts | 51° |
| 2026-05-08 06:48 | 50.76446 | 10.85072 | 17390 ft | 372 kts | 51° |
| 2026-05-08 06:49 | 50.78043 | 10.88281 | 16865 ft | 371 kts | 51° |
| 2026-05-08 06:49 | 50.79641 | 10.91497 | 16348 ft | 371 kts | 51° |
| 2026-05-08 06:49 | 50.81236 | 10.94710 | 15841 ft | 370 kts | 51° |
| 2026-05-08 06:49 | 50.82822 | 10.97909 | 15342 ft | 369 kts | 51° |
| 2026-05-08 06:50 | 50.84405 | 11.01107 | 14849 ft | 368 kts | 51° |
| 2026-05-08 06:50 | 50.85978 | 11.04290 | 14366 ft | 367 kts | 51° |
| 2026-05-08 06:50 | 50.87549 | 11.07469 | 13885 ft | 365 kts | 51° |
| 2026-05-08 06:50 | 50.89109 | 11.10632 | 13333 ft | 364 kts | 51° |
| 2026-05-08 06:51 | 50.90647 | 11.13753 | 12830 ft | 362 kts | 51° |
| 2026-05-08 06:51 | 50.92193 | 11.16892 | 12302 ft | 360 kts | 51° |
| 2026-05-08 06:51 | 50.93729 | 11.20017 | 11801 ft | 357 kts | 51° |
| 2026-05-08 06:51 | 50.95252 | 11.23119 | 11297 ft | 354 kts | 51° |
| 2026-05-08 06:52 | 50.96760 | 11.26194 | 10804 ft | 351 kts | 51° |
| 2026-05-08 06:52 | 50.98234 | 11.29206 | 10293 ft | 337 kts | 52° |
| 2026-05-08 06:52 | 50.99637 | 11.32074 | 9762 ft | 321 kts | 52° |
| 2026-05-08 06:52 | 51.00973 | 11.34809 | 9227 ft | 307 kts | 52° |
| 2026-05-08 06:53 | 51.02256 | 11.37439 | 8699 ft | 295 kts | 52° |
| 2026-05-08 06:53 | 51.03492 | 11.39973 | 8181 ft | 285 kts | 52° |
| 2026-05-08 06:53 | 51.04677 | 11.42407 | 7656 ft | 278 kts | 51° |
| 2026-05-08 06:53 | 51.05862 | 11.44840 | 7182 ft | 280 kts | 52° |
| 2026-05-08 06:54 | 51.07060 | 11.47301 | 6691 ft | 280 kts | 52° |
| 2026-05-08 06:54 | 51.08244 | 11.49738 | 6177 ft | 277 kts | 52° |
| 2026-05-08 06:54 | 51.09359 | 11.52213 | 5661 ft | 274 kts | 57° |
| 2026-05-08 06:54 | 51.10275 | 11.54852 | 5254 ft | 270 kts | 65° |
| 2026-05-08 06:55 | 51.10942 | 11.57587 | 5141 ft | 262 kts | 72° |
| 2026-05-08 06:55 | 51.11378 | 11.60399 | 5143 ft | 262 kts | 80° |
| 2026-05-08 06:55 | 51.11608 | 11.63277 | 5147 ft | 263 kts | 84° |
| 2026-05-08 06:55 | 51.11761 | 11.66173 | 5147 ft | 263 kts | 85° |
| 2026-05-08 06:56 | 51.11905 | 11.69075 | 5150 ft | 263 kts | 85° |
| 2026-05-08 06:56 | 51.12049 | 11.71978 | 5150 ft | 263 kts | 85° |
| 2026-05-08 06:56 | 51.12195 | 11.74876 | 5146 ft | 263 kts | 85° |
| 2026-05-08 06:56 | 51.12341 | 11.77746 | 5145 ft | 263 kts | 85° |
| 2026-05-08 06:57 | 51.12488 | 11.80657 | 5149 ft | 263 kts | 85° |
| 2026-05-08 06:57 | 51.12635 | 11.83569 | 5152 ft | 263 kts | 85° |
| 2026-05-08 06:57 | 51.12782 | 11.86477 | 5146 ft | 263 kts | 85° |
| 2026-05-08 06:57 | 51.12927 | 11.89387 | 5149 ft | 263 kts | 85° |
| 2026-05-08 06:58 | 51.13071 | 11.92257 | 5150 ft | 263 kts | 85° |
| 2026-05-08 06:58 | 51.13215 | 11.95165 | 5149 ft | 263 kts | 85° |
| 2026-05-08 06:58 | 51.13358 | 11.98066 | 5150 ft | 263 kts | 85° |
| 2026-05-08 06:58 | 51.13500 | 12.00971 | 5147 ft | 263 kts | 85° |
| 2026-05-08 06:59 | 51.13641 | 12.03872 | 5149 ft | 263 kts | 85° |
| 2026-05-08 06:59 | 51.13783 | 12.06787 | 5143 ft | 263 kts | 85° |
| 2026-05-08 06:59 | 51.13923 | 12.09694 | 5148 ft | 263 kts | 85° |
| 2026-05-08 06:59 | 51.14062 | 12.12602 | 5150 ft | 263 kts | 85° |
| 2026-05-08 07:00 | 51.14201 | 12.15512 | 5151 ft | 263 kts | 85° |
| 2026-05-08 07:00 | 51.14340 | 12.18421 | 5150 ft | 263 kts | 85° |
| 2026-05-08 07:00 | 51.14476 | 12.21290 | 5150 ft | 263 kts | 85° |
| 2026-05-08 07:00 | 51.14614 | 12.24210 | 5155 ft | 263 kts | 85° |
| 2026-05-08 07:01 | 51.14750 | 12.27120 | 5162 ft | 264 kts | 85° |
| 2026-05-08 07:01 | 51.14885 | 12.30035 | 5148 ft | 264 kts | 85° |
| 2026-05-08 07:01 | 51.15021 | 12.32952 | 5157 ft | 263 kts | 85° |
| 2026-05-08 07:01 | 51.15154 | 12.35867 | 5155 ft | 263 kts | 85° |
| 2026-05-08 07:02 | 51.15294 | 12.38742 | 5150 ft | 263 kts | 83° |
| 2026-05-08 07:02 | 51.15637 | 12.41603 | 5155 ft | 263 kts | 72° |
| 2026-05-08 07:02 | 51.16376 | 12.44266 | 5144 ft | 263 kts | 58° |
| 2026-05-08 07:02 | 51.17503 | 12.46557 | 5158 ft | 262 kts | 45° |
| 2026-05-08 07:03 | 51.18946 | 12.48340 | 5159 ft | 263 kts | 31° |
| 2026-05-08 07:03 | 51.20623 | 12.49510 | 5153 ft | 264 kts | 17° |
| 2026-05-08 07:03 | 51.22433 | 12.49992 | 5162 ft | 264 kts | 2° |
| 2026-05-08 07:03 | 51.24230 | 12.49664 | 5143 ft | 265 kts | 342° |
| 2026-05-08 07:04 | 51.25823 | 12.48203 | 5154 ft | 267 kts | 317° |
| 2026-05-08 07:04 | 51.26867 | 12.45778 | 5158 ft | 268 kts | 291° |
| 2026-05-08 07:04 | 51.27151 | 12.42855 | 5154 ft | 269 kts | 265° |
| 2026-05-08 07:04 | 51.26618 | 12.40014 | 5132 ft | 270 kts | 240° |
| 2026-05-08 07:05 | 51.25572 | 12.37525 | 5118 ft | 270 kts | 236° |
| 2026-05-08 07:05 | 51.24700 | 12.34866 | 5104 ft | 271 kts | 251° |
| 2026-05-08 07:05 | 51.24343 | 12.31923 | 5111 ft | 270 kts | 269° |
| 2026-05-08 07:05 | 51.24470 | 12.28935 | 5112 ft | 270 kts | 278° |
| 2026-05-08 07:06 | 51.24778 | 12.25983 | 5107 ft | 270 kts | 283° |
| 2026-05-08 07:06 | 51.25228 | 12.23075 | 5105 ft | 270 kts | 285° |
| 2026-05-08 07:06 | 51.25705 | 12.20169 | 5105 ft | 270 kts | 285° |
| 2026-05-08 07:06 | 51.26175 | 12.17300 | 5108 ft | 270 kts | 285° |
| 2026-05-08 07:07 | 51.26646 | 12.14389 | 5109 ft | 270 kts | 285° |
| 2026-05-08 07:07 | 51.27113 | 12.11483 | 5053 ft | 271 kts | 285° |
| 2026-05-08 07:07 | 51.27581 | 12.08566 | 4794 ft | 270 kts | 285° |
| 2026-05-08 07:07 | 51.28044 | 12.05665 | 4642 ft | 269 kts | 285° |
| 2026-05-08 07:08 | 51.28455 | 12.02750 | 4505 ft | 269 kts | 278° |
| 2026-05-08 07:08 | 51.28495 | 11.99763 | 4375 ft | 269 kts | 267° |
| 2026-05-08 07:08 | 51.28363 | 11.96813 | 4252 ft | 269 kts | 265° |
| 2026-05-08 07:08 | 51.28207 | 11.93834 | 4123 ft | 268 kts | 265° |
| 2026-05-08 07:09 | 51.28050 | 11.90866 | 3976 ft | 267 kts | 265° |
| 2026-05-08 07:09 | 51.27897 | 11.87904 | 3866 ft | 267 kts | 265° |
| 2026-05-08 07:09 | 51.27745 | 11.84939 | 3744 ft | 267 kts | 265° |
| 2026-05-08 07:09 | 51.27595 | 11.81984 | 3617 ft | 267 kts | 266° |
| 2026-05-08 07:10 | 51.27445 | 11.79033 | 3465 ft | 266 kts | 265° |
| 2026-05-08 07:10 | 51.27307 | 11.76123 | 3335 ft | 266 kts | 268° |
| 2026-05-08 07:10 | 51.27532 | 11.73205 | 3196 ft | 265 kts | 290° |
| 2026-05-08 07:10 | 51.28498 | 11.70755 | 3105 ft | 261 kts | 318° |
| 2026-05-08 07:11 | 51.30031 | 11.69274 | 3103 ft | 258 kts | 344° |
| 2026-05-08 07:11 | 51.31789 | 11.68781 | 3110 ft | 257 kts | 356° |
| 2026-05-08 07:11 | 51.33578 | 11.68560 | 3101 ft | 258 kts | 357° |
| 2026-05-08 07:11 | 51.35371 | 11.68477 | 3099 ft | 257 kts | 6° |
| 2026-05-08 07:12 | 51.37048 | 11.69266 | 3099 ft | 254 kts | 31° |
| 2026-05-08 07:12 | 51.38317 | 11.71178 | 3106 ft | 252 kts | 58° |
| 2026-05-08 07:12 | 51.38907 | 11.73799 | 3112 ft | 251 kts | 81° |
| 2026-05-08 07:12 | 51.39107 | 11.76586 | 3107 ft | 250 kts | 85° |
| 2026-05-08 07:13 | 51.39236 | 11.79284 | 3094 ft | 236 kts | 85° |
| 2026-05-08 07:13 | 51.39352 | 11.81821 | 3095 ft | 223 kts | 85° |
| 2026-05-08 07:13 | 51.39465 | 11.84298 | 3105 ft | 222 kts | 85° |
| 2026-05-08 07:13 | 51.39577 | 11.86774 | 3122 ft | 222 kts | 86° |
| 2026-05-08 07:14 | 51.39651 | 11.88389 | 3128 ft | 216 kts | 85° |
| 2026-05-08 07:14 | 51.39762 | 11.90760 | 3115 ft | 212 kts | 85° |
| 2026-05-08 07:14 | 51.39910 | 11.93889 | 3105 ft | 212 kts | 85° |
| 2026-05-08 07:14 | 51.39983 | 11.95428 | 3102 ft | 206 kts | 85° |
| 2026-05-08 07:15 | 51.40088 | 11.97628 | 3086 ft | 190 kts | 85° |
| 2026-05-08 07:15 | 51.40183 | 11.99637 | 3075 ft | 173 kts | 85° |
| 2026-05-08 07:15 | 51.40270 | 12.01497 | 2857 ft | 161 kts | 85° |
| 2026-05-08 07:15 | 51.40351 | 12.03231 | 2622 ft | 150 kts | 85° |
| 2026-05-08 07:16 | 51.40427 | 12.04849 | 2423 ft | 144 kts | 85° |
| 2026-05-08 07:16 | 51.40501 | 12.06437 | 2234 ft | 140 kts | 85° |
| 2026-05-08 07:16 | 51.40572 | 12.07962 | 2053 ft | 136 kts | 85° |
| 2026-05-08 07:16 | 51.40642 | 12.09456 | 1851 ft | 136 kts | 85° |
| 2026-05-08 07:17 | 51.40713 | 12.10971 | 1670 ft | 137 kts | 85° |
| 2026-05-08 07:17 | 51.40784 | 12.12489 | 1467 ft | 137 kts | 85° |
| 2026-05-08 07:17 | 51.40856 | 12.14006 | 1277 ft | 137 kts | 85° |
| 2026-05-08 07:17 | 51.40927 | 12.15525 | 1075 ft | 136 kts | 84° |
| 2026-05-08 07:18 | 51.40998 | 12.17040 | 890 ft | 137 kts | 84° |
| 2026-05-08 07:18 | 51.41069 | 12.18560 | 697 ft | 136 kts | 85° |
| 2026-05-08 07:18 | 51.41140 | 12.20073 | 526 ft | 136 kts | 84° |
| 2026-05-08 07:18 | 51.41209 | 12.21535 | 462 ft | 124 kts | 85° |
| 2026-05-08 07:19 | 51.41266 | 12.22711 | 467 ft | 84 kts | 86° |
| 2026-05-08 07:19 | 51.41269 | 12.23248 | 469 ft | 8 kts | 129° |
| 2026-05-08 07:19 | 51.41240 | 12.23265 | 468 ft | 5 kts | 165° |
| 2026-05-08 07:19 | 51.41186 | 12.23279 | 472 ft | 8 kts | 178° |
| 2026-05-08 07:20 | 51.41116 | 12.23283 | 474 ft | 12 kts | 177° |
| 2026-05-08 07:20 | 51.41028 | 12.23282 | 474 ft | 12 kts | 183° |
| 2026-05-08 07:20 | 51.40946 | 12.23283 | 472 ft | 13 kts | 176° |
| 2026-05-08 07:20 | 51.40859 | 12.23293 | 468 ft | 8 kts | 175° |
| 2026-05-08 07:21 | 51.40834 | 12.23311 | 467 ft | 2 kts | 126° |
| 2026-05-08 07:21 | 51.40835 | 12.23339 | 473 ft | 3 kts | 82° |
| 2026-05-08 07:21 | 51.40839 | 12.23386 | 473 ft | 5 kts | 85° |
| 2026-05-08 07:21 | 51.40840 | 12.23408 | 473 ft | 1 kts | 85° |